aviador You're here:

MMZO Decoded Metar

MANZANILLO in MEXICO
Report Time2017-11-24 01:40:00
UTC Time2017-11-24 03:42:21
Flight Rules Old
WindCalm
Visibility9999 m
Phenomena:N/A
Clouds:N/A
Expected CloudBase > 2,000 ft AGL from Temp-Dew spread
CeilingNone
Temp27°C (ISA +12)
Dew Point22°C (74% RH)
Heat Index29.2°C
QNH1011 hPa
Density Alt1,831 ft
Elevation26 ft
Report Wrong Elevation
Raw Report
MMZO 240140Z 00000KT 12SM SKC 27/22 A2986=

Extra information for MMZO:More info

Metar Taf Metar & Taf Last 4 Metars F.Rules Stats Wind Profile Meteogram Temp Stats Airport Information Weather charts Add Link Nearby VenuesMetar ALERT Operation Metar Decoded Social comments